Time;durP1;ratioP1;P1;durP2;ratioP2;P2;SDS_P1;SDS_P2;PMS_P1;PMS_P2;Temp;Humidity;BMP_temperature;BMP_pressure;BME280_temperature;BME280_humidity;BME280_pressure;Samples;Min_cycle;Max_cycle;Signal;HPM_P1;HPM_P2
2021/11/27 00:02:19;;;;;;;1.80;1.00;;;;;;;;;;5053025;28;20028;-49
2021/11/27 00:04:45;;;;;;;1.27;1.17;;;;;;;;;;5052085;28;20385;-54
2021/11/27 00:07:11;;;;;;;1.65;0.80;;;;;;;;;;5052439;28;20021;-48
2021/11/27 00:09:37;;;;;;;1.15;0.95;;;;;;;;;;5052790;28;20021;-48
2021/11/27 00:12:03;;;;;;;1.10;0.82;;;;;;;;;;5050768;28;20029;-47
2021/11/27 00:14:31;;;;;;;0.85;0.80;;;;;;;;;;5052914;28;20031;-49
2021/11/27 00:16:57;;;;;;;2.08;0.93;;;;;;;;;;5051896;28;20021;-47
2021/11/27 00:19:23;;;;;;;1.17;0.82;;;;;;;;;;5052471;28;20526;-47
2021/11/27 00:21:49;;;;;;;1.67;1.10;;;;;;;;;;5052068;28;20070;-47
2021/11/27 00:24:15;;;;;;;1.08;0.80;;;;;;;;;;5052742;28;20033;-47
2021/11/27 00:26:41;;;;;;;0.88;0.80;;;;;;;;;;5052618;28;20023;-47
2021/11/27 00:29:08;;;;;;;1.23;1.00;;;;;;;;;;5051677;28;20028;-52
2021/11/27 00:31:37;;;;;;;2.28;0.90;;;;;;;;;;5052522;28;20025;-47
2021/11/27 00:34:03;;;;;;;1.20;0.80;;;;;;;;;;5051438;28;20437;-47
2021/11/27 00:36:29;;;;;;;1.20;0.77;;;;;;;;;;5052249;28;20478;-47
2021/11/27 00:38:56;;;;;;;1.25;0.80;;;;;;;;;;5051438;28;20480;-47
2021/11/27 00:41:22;;;;;;;0.90;0.70;;;;;;;;;;5052373;28;20459;-48
2021/11/27 00:43:48;;;;;;;0.80;0.65;;;;;;;;;;5051495;28;20025;-54
2021/11/27 00:46:14;;;;;;;1.33;1.02;;;;;;;;;;5052285;28;20032;-50
2021/11/27 00:48:41;;;;;;;1.60;1.08;;;;;;;;;;5051818;28;20432;-49
2021/11/27 00:51:13;;;;;;;1.63;0.90;;;;;;;;;;5051143;28;20256;-47
2021/11/27 00:53:39;;;;;;;0.68;0.60;;;;;;;;;;5052023;28;20017;-48
2021/11/27 00:56:06;;;;;;;1.17;0.55;;;;;;;;;;5051406;28;20021;-47
2021/11/27 00:58:32;;;;;;;1.70;0.80;;;;;;;;;;5053303;28;20100;-47
2021/11/27 01:01:00;;;;;;;0.95;0.77;;;;;;;;;;5053435;28;20028;-47
2021/11/27 01:03:28;;;;;;;1.40;0.82;;;;;;;;;;5053138;28;20421;-48
2021/11/27 01:05:54;;;;;;;0.75;0.60;;;;;;;;;;5051924;28;20025;-47
2021/11/27 01:08:20;;;;;;;1.00;0.60;;;;;;;;;;5053016;28;20021;-47
2021/11/27 01:10:52;;;;;;;0.80;0.77;;;;;;;;;;5052816;28;20059;-54
2021/11/27 01:13:18;;;;;;;;;;;;;;;;;;5053364;28;20025;-49
2021/11/27 01:15:44;;;;;;;1.02;0.80;;;;;;;;;;5051937;28;19916;-47
2021/11/27 01:18:11;;;;;;;1.00;0.70;;;;;;;;;;5052310;28;20040;-47
2021/11/27 01:20:40;;;;;;;0.85;0.70;;;;;;;;;;5052728;28;20021;-48
2021/11/27 01:23:06;;;;;;;1.13;0.80;;;;;;;;;;5051833;28;20025;-48
2021/11/27 01:25:33;;;;;;;1.15;0.88;;;;;;;;;;5052811;28;20035;-48
2021/11/27 01:27:59;;;;;;;1.30;0.80;;;;;;;;;;5051700;28;20419;-47
2021/11/27 01:30:25;;;;;;;1.20;0.85;;;;;;;;;;5052653;28;20067;-48
2021/11/27 01:32:51;;;;;;;1.10;0.80;;;;;;;;;;5051891;28;20128;-46
2021/11/27 01:35:17;;;;;;;1.30;0.93;;;;;;;;;;5052449;28;20024;-47
2021/11/27 01:37:44;;;;;;;1.23;0.88;;;;;;;;;;5052015;28;20052;-49
2021/11/27 01:40:18;;;;;;;1.15;0.85;;;;;;;;;;5051870;28;20071;-46
2021/11/27 01:42:44;;;;;;;0.82;0.70;;;;;;;;;;5052514;28;20087;-47
2021/11/27 01:45:11;;;;;;;1.27;0.60;;;;;;;;;;5051700;28;20381;-47
2021/11/27 01:47:37;;;;;;;1.23;0.70;;;;;;;;;;5052192;28;20025;-48
2021/11/27 01:50:04;;;;;;;1.10;0.80;;;;;;;;;;5051502;28;20091;-47
2021/11/27 01:52:30;;;;;;;1.10;0.75;;;;;;;;;;5052264;28;20086;-47
2021/11/27 01:54:57;;;;;;;0.82;0.70;;;;;;;;;;5051519;28;20079;-48
2021/11/27 01:57:23;;;;;;;0.80;0.70;;;;;;;;;;5052004;28;20025;-47
2021/11/27 01:59:49;;;;;;;1.08;0.90;;;;;;;;;;5051383;28;20025;-54
2021/11/27 02:02:15;;;;;;;0.93;0.70;;;;;;;;;;5052106;28;20443;-47
2021/11/27 02:04:42;;;;;;;0.90;0.65;;;;;;;;;;5052866;28;20486;-47
2021/11/27 02:07:08;;;;;;;0.95;0.68;;;;;;;;;;5051180;28;20104;-47
2021/11/27 02:09:35;;;;;;;0.80;0.68;;;;;;;;;;5052063;28;20021;-48
2021/11/27 02:12:03;;;;;;;0.70;0.70;;;;;;;;;;5051399;28;20044;-47
2021/11/27 02:14:29;;;;;;;0.93;0.60;;;;;;;;;;5051637;28;20504;-47
2021/11/27 02:16:55;;;;;;;0.63;0.60;;;;;;;;;;5051248;28;20036;-47
2021/11/27 02:19:22;;;;;;;0.80;0.65;;;;;;;;;;5051877;28;20040;-49
2021/11/27 02:21:54;;;;;;;1.58;0.65;;;;;;;;;;5051434;28;20115;-54
2021/11/27 02:24:20;;;;;;;;;;;;;;;;;;5052361;28;20021;-50
2021/11/27 02:26:47;;;;;;;0.90;0.80;;;;;;;;;;5051880;28;20285;-49
2021/11/27 02:29:18;;;;;;;0.70;0.60;;;;;;;;;;5051374;28;20112;-47
2021/11/27 02:31:45;;;;;;;0.80;0.55;;;;;;;;;;5051990;28;20110;-48
2021/11/27 02:34:12;;;;;;;1.48;0.75;;;;;;;;;;5050987;28;20021;-49
2021/11/27 02:36:39;;;;;;;1.20;0.80;;;;;;;;;;5050823;28;20080;-48
2021/11/27 02:39:07;;;;;;;0.52;0.52;;;;;;;;;;5050948;28;20028;-48
2021/11/27 02:41:33;;;;;;;0.90;0.50;;;;;;;;;;5051821;28;20036;-48
2021/11/27 02:44:01;;;;;;;0.80;0.65;;;;;;;;;;5050932;28;20025;-48
2021/11/27 02:46:27;;;;;;;0.95;0.50;;;;;;;;;;5051501;28;20025;-47
2021/11/27 02:48:53;;;;;;;0.85;0.60;;;;;;;;;;5051097;28;20025;-47
2021/11/27 02:51:19;;;;;;;1.05;0.70;;;;;;;;;;5051419;28;20025;-47
2021/11/27 02:53:46;;;;;;;0.70;0.55;;;;;;;;;;5051450;28;20029;-47
2021/11/27 02:56:12;;;;;;;0.70;0.60;;;;;;;;;;5050970;28;20032;-47
2021/11/27 02:58:39;;;;;;;0.90;0.65;;;;;;;;;;5051629;28;20037;-47
2021/11/27 03:01:06;;;;;;;1.00;0.60;;;;;;;;;;5050756;28;20067;-47
2021/11/27 03:03:34;;;;;;;1.25;0.80;;;;;;;;;;5051607;28;20021;-48
2021/11/27 03:06:00;;;;;;;1.02;0.73;;;;;;;;;;5050700;28;20422;-47
2021/11/27 03:08:27;;;;;;;0.70;0.50;;;;;;;;;;5051291;28;20032;-51
2021/11/27 03:10:53;;;;;;;0.95;0.70;;;;;;;;;;5050446;28;20490;-51
2021/11/27 03:13:25;;;;;;;1.20;0.63;;;;;;;;;;5051158;28;20082;-49
2021/11/27 03:15:53;;;;;;;0.95;0.90;;;;;;;;;;5050364;28;20482;-54
2021/11/27 03:18:19;;;;;;;0.80;0.50;;;;;;;;;;5051294;28;20364;-48
2021/11/27 03:20:45;;;;;;;0.80;0.50;;;;;;;;;;5051344;28;20033;-47
2021/11/27 03:23:11;;;;;;;0.95;0.65;;;;;;;;;;5050318;28;20092;-48
2021/11/27 03:25:37;;;;;;;0.57;0.50;;;;;;;;;;5051344;28;20017;-47
2021/11/27 03:28:04;;;;;;;0.80;0.63;;;;;;;;;;5050365;28;20032;-47
2021/11/27 03:30:31;;;;;;;1.33;0.60;;;;;;;;;;5051299;28;20029;-49
2021/11/27 03:32:57;;;;;;;0.90;0.60;;;;;;;;;;5050326;28;20036;-48
2021/11/27 03:35:23;;;;;;;0.70;0.60;;;;;;;;;;5051269;28;20017;-47
2021/11/27 03:37:53;;;;;;;1.05;0.60;;;;;;;;;;5050981;28;20122;-55
2021/11/27 03:40:21;;;;;;;1.30;0.52;;;;;;;;;;5053391;28;20079;-47
2021/11/27 03:42:47;;;;;;;1.08;0.60;;;;;;;;;;5054438;28;20486;-47
2021/11/27 03:45:15;;;;;;;0.70;0.60;;;;;;;;;;5053897;28;20029;-47
2021/11/27 03:48:00;;;;;;;0.73;0.50;;;;;;;;;;5054802;28;20025;-49
2021/11/27 03:50:43;;;;;;;2.25;0.50;;;;;;;;;;5054345;28;20124;-47
2021/11/27 03:53:12;;;;;;;0.68;0.63;;;;;;;;;;5053608;28;20029;-47
2021/11/27 03:55:38;;;;;;;0.57;0.50;;;;;;;;;;5054339;28;20426;-47
2021/11/27 03:58:04;;;;;;;1.10;0.70;;;;;;;;;;5054115;28;20504;-47
2021/11/27 04:00:30;;;;;;;0.70;0.63;;;;;;;;;;5054064;28;20021;-50
2021/11/27 04:02:57;;;;;;;0.82;0.65;;;;;;;;;;5053758;28;20481;-48
2021/11/27 04:05:24;;;;;;;0.40;0.40;;;;;;;;;;5054146;28;20021;-51
2021/11/27 04:07:53;;;;;;;0.77;0.63;;;;;;;;;;5054417;28;20033;-47
2021/11/27 04:10:19;;;;;;;0.85;0.85;;;;;;;;;;5053850;28;20112;-47
2021/11/27 04:12:45;;;;;;;0.80;0.60;;;;;;;;;;5053974;28;20106;-53
2021/11/27 04:15:11;;;;;;;0.70;0.63;;;;;;;;;;5053416;28;20596;-49
2021/11/27 04:17:39;;;;;;;0.38;0.38;;;;;;;;;;5054182;28;20025;-47
2021/11/27 04:20:05;;;;;;;0.93;0.50;;;;;;;;;;5053373;28;20040;-49
2021/11/27 04:22:31;;;;;;;0.70;0.60;;;;;;;;;;5053960;28;20024;-50
2021/11/27 04:24:57;;;;;;;0.52;0.45;;;;;;;;;;5053025;28;20021;-54
2021/11/27 04:27:23;;;;;;;0.75;0.63;;;;;;;;;;5054080;28;20466;-47
2021/11/27 04:29:49;;;;;;;0.70;0.60;;;;;;;;;;5053706;28;20059;-47
2021/11/27 04:32:15;;;;;;;0.90;0.60;;;;;;;;;;5052977;28;20929;-51
2021/11/27 04:34:42;;;;;;;0.70;0.40;;;;;;;;;;5053777;28;20108;-49
2021/11/27 04:37:10;;;;;;;0.77;0.60;;;;;;;;;;5051847;28;20049;-48
2021/11/27 04:39:40;;;;;;;0.75;0.45;;;;;;;;;;5053520;28;20029;-48
2021/11/27 04:42:07;;;;;;;0.85;0.52;;;;;;;;;;5052906;28;20445;-49
2021/11/27 04:44:34;;;;;;;0.57;0.50;;;;;;;;;;5053302;28;20029;-49
2021/11/27 04:47:00;;;;;;;0.88;0.60;;;;;;;;;;5053044;28;20469;-51
2021/11/27 04:49:26;;;;;;;0.60;0.50;;;;;;;;;;5053583;28;20036;-49
2021/11/27 04:51:59;;;;;;;0.68;0.60;;;;;;;;;;5052192;28;20094;-56
2021/11/27 04:54:26;;;;;;;0.60;0.50;;;;;;;;;;5053520;28;20029;-46
2021/11/27 04:56:56;;;;;;;0.93;0.65;;;;;;;;;;5052841;28;20020;-54
2021/11/27 04:59:22;;;;;;;0.65;0.50;;;;;;;;;;5053329;28;20052;-52
2021/11/27 05:01:49;;;;;;;0.52;0.40;;;;;;;;;;5053274;28;20437;-47
2021/11/27 05:04:16;;;;;;;0.47;0.40;;;;;;;;;;5052527;28;20035;-47
2021/11/27 05:06:42;;;;;;;0.43;0.43;;;;;;;;;;5052836;28;20373;-48
2021/11/27 05:09:08;;;;;;;1.05;0.80;;;;;;;;;;5052166;28;20435;-47
2021/11/27 05:11:34;;;;;;;0.60;0.60;;;;;;;;;;5053036;28;20032;-48
2021/11/27 05:14:01;;;;;;;1.08;0.50;;;;;;;;;;5052281;28;20431;-47
2021/11/27 05:16:28;;;;;;;2.08;0.80;;;;;;;;;;5053011;28;20029;-47
2021/11/27 05:19:00;;;;;;;2.55;0.50;;;;;;;;;;5052787;28;20029;-55
2021/11/27 05:21:26;;;;;;;;;;;;;;;;;;5053073;28;20032;-47
2021/11/27 05:23:52;;;;;;;0.50;0.50;;;;;;;;;;5053081;28;19905;-48
2021/11/27 05:26:18;;;;;;;0.57;0.50;;;;;;;;;;5051939;28;20040;-49
2021/11/27 05:28:44;;;;;;;0.93;0.52;;;;;;;;;;5052987;28;20112;-48
2021/11/27 05:31:13;;;;;;;0.40;0.40;;;;;;;;;;5051917;28;20408;-48
2021/11/27 05:36:16;;;;;;;0.70;0.50;;;;;;;;;;5051191;28;20493;-47
2021/11/27 05:38:44;;;;;;;0.52;0.40;;;;;;;;;;5052754;28;20393;-49
2021/11/27 05:41:10;;;;;;;1.00;0.50;;;;;;;;;;5051570;28;20029;-47
2021/11/27 05:43:36;;;;;;;1.08;0.88;;;;;;;;;;5052506;28;20035;-48
2021/11/27 05:46:03;;;;;;;0.57;0.50;;;;;;;;;;5051699;28;20033;-47
2021/11/27 05:48:29;;;;;;;0.40;0.30;;;;;;;;;;5052030;28;20029;-47
2021/11/27 05:50:58;;;;;;;1.52;0.50;;;;;;;;;;5052170;28;20060;-56
2021/11/27 05:53:24;;;;;;;0.60;0.45;;;;;;;;;;5052682;28;20021;-51
2021/11/27 05:55:51;;;;;;;0.80;0.38;;;;;;;;;;5052371;28;20048;-48
2021/11/27 05:58:18;;;;;;;0.63;0.57;;;;;;;;;;5051188;28;20647;-49
2021/11/27 06:00:45;;;;;;;0.57;0.40;;;;;;;;;;5052365;28;20492;-48
2021/11/27 06:03:11;;;;;;;0.35;0.32;;;;;;;;;;5050921;28;20052;-47
2021/11/27 06:05:37;;;;;;;0.45;0.40;;;;;;;;;;5052172;28;20351;-48
2021/11/27 06:08:04;;;;;;;0.73;0.52;;;;;;;;;;5051124;28;20025;-50
2021/11/27 06:10:31;;;;;;;0.32;0.32;;;;;;;;;;5051996;28;20061;-47
2021/11/27 06:12:59;;;;;;;0.20;0.20;;;;;;;;;;5051221;28;20474;-54
2021/11/27 06:15:25;;;;;;;0.35;0.30;;;;;;;;;;5052331;28;20037;-47
2021/11/27 06:17:53;;;;;;;0.40;0.40;;;;;;;;;;5051987;28;20040;-48
2021/11/27 06:20:20;;;;;;;0.70;0.50;;;;;;;;;;5051239;28;20025;-47
2021/11/27 06:22:46;;;;;;;0.40;0.30;;;;;;;;;;5051787;28;20059;-49
2021/11/27 06:25:13;;;;;;;1.45;0.40;;;;;;;;;;5051225;28;20032;-48
2021/11/27 06:27:39;;;;;;;0.50;0.38;;;;;;;;;;5051361;28;20055;-49
2021/11/27 06:30:06;;;;;;;0.40;0.40;;;;;;;;;;5049822;28;20374;-47
2021/11/27 06:32:32;;;;;;;0.80;0.50;;;;;;;;;;5050363;28;20033;-49
2021/11/27 06:35:00;;;;;;;0.57;0.50;;;;;;;;;;5050163;28;20013;-55
2021/11/27 06:37:26;;;;;;;0.73;0.50;;;;;;;;;;5050091;28;20398;-47
2021/11/27 06:39:52;;;;;;;0.40;0.40;;;;;;;;;;5050510;28;20021;-47
2021/11/27 06:42:19;;;;;;;0.70;0.52;;;;;;;;;;5049516;28;20040;-47
2021/11/27 06:44:48;;;;;;;0.50;0.40;;;;;;;;;;5050187;28;20360;-47
2021/11/27 06:47:18;;;;;;;0.40;0.30;;;;;;;;;;5048495;28;20021;-47
2021/11/27 06:49:45;;;;;;;0.30;0.30;;;;;;;;;;5049251;28;20021;-48
2021/11/27 06:52:12;;;;;;;0.52;0.47;;;;;;;;;;5049301;28;20492;-48
2021/11/27 06:54:39;;;;;;;0.55;0.40;;;;;;;;;;5050400;28;20017;-49
2021/11/27 06:57:06;;;;;;;0.55;0.40;;;;;;;;;;5049374;28;20048;-47
2021/11/27 06:59:33;;;;;;;0.30;0.30;;;;;;;;;;5050054;28;20048;-49
2021/11/27 07:02:00;;;;;;;0.60;0.40;;;;;;;;;;5049723;28;20031;-55
2021/11/27 07:04:26;;;;;;;0.68;0.60;;;;;;;;;;5049999;28;20506;-47
2021/11/27 07:06:52;;;;;;;0.40;0.40;;;;;;;;;;5050223;28;20099;-47
2021/11/27 07:09:18;;;;;;;0.40;0.40;;;;;;;;;;5049542;28;20025;-48
2021/11/27 07:11:44;;;;;;;0.40;0.40;;;;;;;;;;5050265;28;20024;-47
2021/11/27 07:14:11;;;;;;;1.48;0.45;;;;;;;;;;5049906;28;20350;-49
2021/11/27 07:16:37;;;;;;;0.40;0.40;;;;;;;;;;5054305;28;20025;-47
2021/11/27 07:19:04;;;;;;;0.63;0.40;;;;;;;;;;5053138;28;20055;-48
2021/11/27 07:21:30;;;;;;;0.30;0.25;;;;;;;;;;5053928;28;20030;-48
2021/11/27 07:24:00;;;;;;;0.60;0.40;;;;;;;;;;5053764;28;20363;-55
2021/11/27 07:26:26;;;;;;;0.68;0.60;;;;;;;;;;5053838;28;20017;-49
2021/11/27 07:28:54;;;;;;;0.30;0.30;;;;;;;;;;5053513;28;20074;-47
2021/11/27 07:31:20;;;;;;;0.50;0.50;;;;;;;;;;5052993;28;20020;-48
2021/11/27 07:33:47;;;;;;;0.70;0.30;;;;;;;;;;5053515;28;20017;-50
2021/11/27 07:36:13;;;;;;;0.65;0.40;;;;;;;;;;5051994;28;20013;-47
2021/11/27 07:38:39;;;;;;;0.68;0.40;;;;;;;;;;5053248;28;20097;-47
2021/11/27 07:41:05;;;;;;;0.30;0.22;;;;;;;;;;5052707;28;20028;-47
2021/11/27 07:43:33;;;;;;;0.50;0.40;;;;;;;;;;5053071;28;20041;-48
2021/11/27 07:46:01;;;;;;;0.43;0.25;;;;;;;;;;5052927;28;20398;-56
2021/11/27 07:48:31;;;;;;;0.40;0.30;;;;;;;;;;5052954;28;20017;-47
2021/11/27 07:51:04;;;;;;;0.50;0.32;;;;;;;;;;5050599;28;20021;-61
2021/11/27 07:53:30;;;;;;;0.25;0.25;;;;;;;;;;5052997;28;20087;-50
2021/11/27 07:55:56;;;;;;;0.40;0.30;;;;;;;;;;5053370;28;20029;-48
2021/11/27 07:58:22;;;;;;;0.52;0.50;;;;;;;;;;5052382;28;20017;-48
2021/11/27 08:00:48;;;;;;;0.50;0.30;;;;;;;;;;5052851;28;20462;-47
2021/11/27 08:03:14;;;;;;;1.45;0.50;;;;;;;;;;5052509;28;20051;-47
2021/11/27 08:05:41;;;;;;;0.35;0.30;;;;;;;;;;5052870;28;20036;-48
2021/11/27 08:08:07;;;;;;;0.80;0.40;;;;;;;;;;5052164;28;20040;-47
2021/11/27 08:10:33;;;;;;;0.40;0.30;;;;;;;;;;5052581;28;20071;-48
2021/11/27 08:13:01;;;;;;;0.30;0.30;;;;;;;;;;5052666;28;20031;-55
2021/11/27 08:15:27;;;;;;;1.00;0.60;;;;;;;;;;5051226;28;20378;-47
2021/11/27 08:17:53;;;;;;;1.67;0.68;;;;;;;;;;5052702;28;20493;-47
2021/11/27 08:20:20;;;;;;;1.60;0.40;;;;;;;;;;5051941;28;20086;-49
2021/11/27 08:22:46;;;;;;;1.60;0.50;;;;;;;;;;5052561;28;20013;-48
2021/11/27 08:25:12;;;;;;;1.80;0.50;;;;;;;;;;5051563;28;20355;-50
2021/11/27 08:27:38;;;;;;;1.80;0.60;;;;;;;;;;5052660;28;20458;-48
2021/11/27 08:30:05;;;;;;;2.08;0.85;;;;;;;;;;5052370;28;20580;-53
2021/11/27 08:32:31;;;;;;;1.65;0.57;;;;;;;;;;5048445;28;20025;-51
2021/11/27 08:35:04;;;;;;;0.80;0.60;;;;;;;;;;5053494;28;20033;-57
2021/11/27 08:37:32;;;;;;;0.65;0.30;;;;;;;;;;5053160;28;20445;-49
2021/11/27 08:40:06;;;;;;;2.90;0.75;;;;;;;;;;5053449;28;20033;-55
2021/11/27 08:42:34;;;;;;;2.13;0.50;;;;;;;;;;5055866;28;20025;-50
2021/11/27 08:45:01;;;;;;;0.90;0.50;;;;;;;;;;5053532;28;20095;-52
2021/11/27 08:47:27;;;;;;;3.22;0.68;;;;;;;;;;5053661;28;20119;-52
2021/11/27 08:49:55;;;;;;;6.95;0.70;;;;;;;;;;5053445;28;20509;-51
2021/11/27 08:52:22;;;;;;;1.98;0.63;;;;;;;;;;5052692;28;20065;-55
2021/11/27 08:54:48;;;;;;;2.38;0.60;;;;;;;;;;5053187;28;20098;-52
2021/11/27 08:57:14;;;;;;;2.95;0.80;;;;;;;;;;5052643;28;20036;-48
2021/11/27 08:59:41;;;;;;;1.60;0.57;;;;;;;;;;5053298;28;20033;-48
2021/11/27 09:02:07;;;;;;;3.10;0.90;;;;;;;;;;5052136;28;20433;-60
2021/11/27 09:04:34;;;;;;;4.05;0.52;;;;;;;;;;5052944;28;20048;-50
2021/11/27 09:07:03;;;;;;;4.80;1.00;;;;;;;;;;5052693;28;20033;-56
2021/11/27 09:09:30;;;;;;;0.73;0.45;;;;;;;;;;5052611;28;20386;-49
2021/11/27 09:11:56;;;;;;;2.58;0.60;;;;;;;;;;5052795;28;20096;-55
2021/11/27 09:14:22;;;;;;;4.72;0.93;;;;;;;;;;5051888;28;20542;-50
2021/11/27 09:16:51;;;;;;;2.67;0.52;;;;;;;;;;5052440;28;20033;-48
2021/11/27 09:19:17;;;;;;;3.60;0.90;;;;;;;;;;5052052;28;20119;-46
2021/11/27 09:21:43;;;;;;;1.45;0.57;;;;;;;;;;5052900;28;20052;-45
2021/11/27 09:24:09;;;;;;;3.75;0.50;;;;;;;;;;5051870;28;20428;-44
2021/11/27 09:26:37;;;;;;;2.70;0.65;;;;;;;;;;5052831;28;20068;-45
2021/11/27 09:29:05;;;;;;;2.45;0.60;;;;;;;;;;5051800;28;20029;-48
2021/11/27 09:31:32;;;;;;;1.40;0.65;;;;;;;;;;5052814;28;20071;-49
2021/11/27 09:34:00;;;;;;;1.98;0.55;;;;;;;;;;5052683;28;20020;-52
2021/11/27 09:36:26;;;;;;;2.60;0.70;;;;;;;;;;5051245;28;20103;-56
2021/11/27 09:38:52;;;;;;;4.05;1.10;;;;;;;;;;5052090;28;20515;-55
2021/11/27 09:41:24;;;;;;;1.30;0.50;;;;;;;;;;5049307;28;20830;-50
2021/11/27 09:43:51;;;;;;;3.60;0.65;;;;;;;;;;5051833;28;20027;-48
2021/11/27 09:46:21;;;;;;;3.90;1.08;;;;;;;;;;5050975;28;20037;-55
2021/11/27 09:48:51;;;;;;;3.22;0.93;;;;;;;;;;5052162;28;20029;-47
2021/11/27 09:51:19;;;;;;;0.95;0.40;;;;;;;;;;5051251;28;20028;-44
2021/11/27 09:53:45;;;;;;;2.50;0.93;;;;;;;;;;5052189;28;20411;-46
2021/11/27 09:56:11;;;;;;;2.17;0.57;;;;;;;;;;5052425;28;20029;-53
2021/11/27 09:58:38;;;;;;;4.32;0.60;;;;;;;;;;5071761;28;20135;-56
2021/11/27 10:01:05;;;;;;;2.75;0.70;;;;;;;;;;5070723;28;20542;-46
2021/11/27 10:03:32;;;;;;;3.58;0.70;;;;;;;;;;5073750;28;20060;-52
2021/11/27 10:05:58;;;;;;;3.40;1.23;;;;;;;;;;5072448;28;20024;-46
2021/11/27 10:08:24;;;;;;;5.13;1.02;;;;;;;;;;5070944;28;20022;-47
2021/11/27 10:10:51;;;;;;;1.55;1.08;;;;;;;;;;5071576;28;20381;-45
2021/11/27 10:13:18;;;;;;;12.77;2.05;;;;;;;;;;5070904;28;20030;-48
2021/11/27 10:15:44;;;;;;;2.38;0.70;;;;;;;;;;5072048;28;20373;-50
2021/11/27 10:18:20;;;;;;;5.43;0.93;;;;;;;;;;5071033;28;20028;-52
2021/11/27 10:20:46;;;;;;;2.95;0.80;;;;;;;;;;5071745;28;20032;-48
2021/11/27 10:23:12;;;;;;;2.65;0.80;;;;;;;;;;5057238;28;20021;-52
2021/11/27 10:25:42;;;;;;;1.23;0.60;;;;;;;;;;5051453;28;20120;-52
2021/11/27 10:28:13;;;;;;;1.75;0.68;;;;;;;;;;5068874;28;20024;-55
2021/11/27 10:30:55;;;;;;;2.28;0.75;;;;;;;;;;5070362;28;20434;-47
2021/11/27 10:33:21;;;;;;;2.78;1.35;;;;;;;;;;5070669;28;20025;-48
2021/11/27 10:35:48;;;;;;;4.15;1.77;;;;;;;;;;5071422;28;20039;-49
2021/11/27 10:38:14;;;;;;;4.00;1.25;;;;;;;;;;5069931;28;20101;-45
2021/11/27 10:40:41;;;;;;;8.27;1.75;;;;;;;;;;5071172;28;20024;-45
2021/11/27 10:43:12;;;;;;;2.25;0.60;;;;;;;;;;5070845;28;20031;-47
2021/11/27 10:45:41;;;;;;;1.65;0.77;;;;;;;;;;5071163;28;20029;-54
2021/11/27 10:48:12;;;;;;;3.45;0.85;;;;;;;;;;5071644;28;20043;-55
2021/11/27 10:50:40;;;;;;;2.92;0.60;;;;;;;;;;5075721;28;20036;-50
2021/11/27 10:53:13;;;;;;;1.88;0.80;;;;;;;;;;5074617;28;20025;-53
2021/11/27 10:55:40;;;;;;;1.65;0.70;;;;;;;;;;5075547;28;20109;-56
2021/11/27 10:58:07;;;;;;;2.97;0.82;;;;;;;;;;5074535;28;20081;-55
2021/11/27 11:00:50;;;;;;;8.82;1.23;;;;;;;;;;5075270;28;20028;-50
2021/11/27 11:03:32;;;;;;;3.38;0.85;;;;;;;;;;5074447;28;20028;-52
2021/11/27 11:05:58;;;;;;;;;;;;;;;;;;5075809;28;20452;-48
2021/11/27 11:08:35;;;;;;;6.30;0.85;;;;;;;;;;5074696;28;19986;-51
2021/11/27 11:11:02;;;;;;;3.33;0.60;;;;;;;;;;5075007;28;20362;-53
2021/11/27 11:13:30;;;;;;;4.03;1.23;;;;;;;;;;5074563;28;20047;-52
2021/11/27 11:15:56;;;;;;;3.30;0.63;;;;;;;;;;5074931;28;20036;-54
2021/11/27 11:18:27;;;;;;;4.25;1.02;;;;;;;;;;5074179;28;20052;-51
2021/11/27 11:20:54;;;;;;;4.72;0.90;;;;;;;;;;5075063;28;20051;-52
2021/11/27 11:23:31;;;;;;;7.15;1.23;;;;;;;;;;5058803;28;20470;-55
2021/11/27 11:25:57;;;;;;;2.65;0.85;;;;;;;;;;5054996;28;20032;-53
2021/11/27 11:28:24;;;;;;;2.25;0.70;;;;;;;;;;5074244;28;20109;-52
2021/11/27 11:30:55;;;;;;;4.47;0.70;;;;;;;;;;5067967;28;20425;-54
2021/11/27 11:33:23;;;;;;;5.60;0.80;;;;;;;;;;5070272;28;20016;-52
2021/11/27 11:35:49;;;;;;;2.55;0.80;;;;;;;;;;5074410;28;20111;-55
2021/11/27 11:38:16;;;;;;;2.35;0.80;;;;;;;;;;5074028;28;20510;-54
2021/11/27 11:40:43;;;;;;;5.15;1.05;;;;;;;;;;5073113;28;20504;-55
2021/11/27 11:43:10;;;;;;;5.55;0.90;;;;;;;;;;5073974;28;20029;-54
2021/11/27 11:45:36;;;;;;;1.10;0.65;;;;;;;;;;5074246;28;20074;-54
2021/11/27 11:48:03;;;;;;;2.70;1.00;;;;;;;;;;5074692;28;20024;-54
2021/11/27 11:50:30;;;;;;;1.35;0.63;;;;;;;;;;5073596;28;20028;-53
2021/11/27 11:53:09;;;;;;;1.35;0.60;;;;;;;;;;5073297;28;20020;-53
2021/11/27 11:55:36;;;;;;;1.25;0.38;;;;;;;;;;5074450;28;20025;-51
2021/11/27 11:58:03;;;;;;;1.63;0.60;;;;;;;;;;5073289;28;20021;-54
2021/11/27 12:00:33;;;;;;;1.75;0.63;;;;;;;;;;5072614;28;20028;-53
2021/11/27 12:03:20;;;;;;;2.25;0.60;;;;;;;;;;5074539;28;20042;-53
2021/11/27 12:05:56;;;;;;;19.05;1.15;;;;;;;;;;5073767;28;20033;-54
2021/11/27 12:08:40;;;;;;;1.20;0.70;;;;;;;;;;5073468;28;20024;-53
2021/11/27 12:11:08;;;;;;;2.13;0.50;;;;;;;;;;5073430;28;20116;-61
2021/11/27 12:13:35;;;;;;;1.70;0.70;;;;;;;;;;5071600;28;20016;-54
2021/11/27 12:16:02;;;;;;;0.82;0.60;;;;;;;;;;5073706;28;20025;-54
2021/11/27 12:18:28;;;;;;;1.23;0.60;;;;;;;;;;5073260;28;20025;-52
2021/11/27 12:20:55;;;;;;;1.98;0.73;;;;;;;;;;5073851;28;20064;-54
2021/11/27 12:23:28;;;;;;;2.80;0.57;;;;;;;;;;5057876;28;20017;-54
2021/11/27 12:26:13;;;;;;;2.05;0.70;;;;;;;;;;5053538;28;20024;-54
2021/11/27 12:28:48;;;;;;;2.42;0.77;;;;;;;;;;5053837;28;20108;-54
2021/11/27 12:31:24;;;;;;;1.67;0.80;;;;;;;;;;5052945;28;20086;-54
2021/11/27 12:33:58;;;;;;;1.05;0.73;;;;;;;;;;5053616;28;20544;-54
2021/11/27 12:36:30;;;;;;;3.13;0.68;;;;;;;;;;5052383;28;20075;-53
2021/11/27 12:38:59;;;;;;;3.33;0.68;;;;;;;;;;5053399;28;20025;-55
2021/11/27 12:41:27;;;;;;;1.35;0.43;;;;;;;;;;5061354;28;20125;-54
2021/11/27 12:44:16;;;;;;;2.35;0.60;;;;;;;;;;5072506;28;20081;-55
2021/11/27 12:46:48;;;;;;;1.70;0.50;;;;;;;;;;5064607;28;20037;-54
2021/11/27 12:49:32;;;;;;;3.57;0.73;;;;;;;;;;5075193;28;20028;-51
2021/11/27 12:52:17;;;;;;;1.65;0.70;;;;;;;;;;5072187;28;20312;-55
2021/11/27 12:54:54;;;;;;;1.88;0.47;;;;;;;;;;5072205;28;20060;-52
2021/11/27 12:57:20;;;;;;;1.15;0.68;;;;;;;;;;5071723;28;20021;-49
2021/11/27 12:59:48;;;;;;;1.58;0.75;;;;;;;;;;5071309;28;20024;-56
2021/11/27 13:02:15;;;;;;;4.75;0.50;;;;;;;;;;5072081;28;20021;-54
2021/11/27 13:04:42;;;;;;;2.55;0.75;;;;;;;;;;5072977;28;20024;-57
2021/11/27 13:07:11;;;;;;;3.45;0.70;;;;;;;;;;5072207;28;20346;-59
2021/11/27 13:09:37;;;;;;;11.68;1.40;;;;;;;;;;5072632;28;20071;-52
2021/11/27 13:12:15;;;;;;;3.75;0.70;;;;;;;;;;5071491;28;20052;-44
2021/11/27 13:14:41;;;;;;;2.75;0.60;;;;;;;;;;5072080;28;20023;-50
2021/11/27 13:17:25;;;;;;;5.07;1.08;;;;;;;;;;5072218;28;20392;-54
2021/11/27 13:19:51;;;;;;;2.88;1.40;;;;;;;;;;5067925;28;20429;-52
2021/11/27 13:22:19;;;;;;;3.22;1.20;;;;;;;;;;5051395;28;20532;-45
2021/11/27 13:24:56;;;;;;;4.55;1.23;;;;;;;;;;5072044;28;20028;-44
2021/11/27 13:27:23;;;;;;;4.88;1.50;;;;;;;;;;5071464;28;20024;-44
2021/11/27 13:30:19;;;;;;;3.78;1.10;;;;;;;;;;5072328;28;20045;-50
2021/11/27 13:32:47;;;;;;;2.83;1.48;;;;;;;;;;5059299;28;20033;-45
2021/11/27 13:35:14;;;;;;;3.65;0.98;;;;;;;;;;5071083;28;20078;-45
2021/11/27 13:37:54;;;;;;;6.82;1.20;;;;;;;;;;5072042;28;20049;-46
2021/11/27 13:40:24;;;;;;;4.05;1.50;;;;;;;;;;5066379;28;20070;-45
2021/11/27 13:42:52;;;;;;;2.72;0.57;;;;;;;;;;5051401;28;20090;-45
2021/11/27 13:45:18;;;;;;;9.75;1.30;;;;;;;;;;5070541;28;20056;-45
2021/11/27 13:47:44;;;;;;;3.35;1.00;;;;;;;;;;5071741;28;20158;-46
2021/11/27 13:50:17;;;;;;;1.85;0.80;;;;;;;;;;5070908;28;20037;-53
2021/11/27 13:52:47;;;;;;;2.05;0.75;;;;;;;;;;5071659;28;20108;-44
2021/11/27 13:55:22;;;;;;;1.50;0.80;;;;;;;;;;5070882;28;20404;-45
2021/11/27 13:57:50;;;;;;;2.30;0.90;;;;;;;;;;5071199;28;20366;-45
2021/11/27 14:00:20;;;;;;;3.70;1.17;;;;;;;;;;5070127;28;20036;-45
2021/11/27 14:02:47;;;;;;;3.85;0.63;;;;;;;;;;5070914;28;20025;-45
2021/11/27 14:05:13;;;;;;;1.90;0.85;;;;;;;;;;5070529;28;20381;-45
2021/11/27 14:07:41;;;;;;;2.50;0.88;;;;;;;;;;5070712;28;20445;-45
2021/11/27 14:10:17;;;;;;;1.38;0.70;;;;;;;;;;5071110;28;20501;-45
2021/11/27 14:12:45;;;;;;;4.22;1.17;;;;;;;;;;5071625;28;20024;-47
2021/11/27 14:15:14;;;;;;;2.40;0.80;;;;;;;;;;5070552;28;20020;-54
2021/11/27 14:17:41;;;;;;;1.13;0.68;;;;;;;;;;5071493;28;20107;-47
2021/11/27 14:20:32;;;;;;;2.05;0.55;;;;;;;;;;5071521;28;20039;-49
2021/11/27 14:23:00;;;;;;;2.15;0.63;;;;;;;;;;5058584;28;20100;-46
2021/11/27 14:25:28;;;;;;;1.27;0.50;;;;;;;;;;5050269;28;20032;-47
2021/11/27 14:27:55;;;;;;;1.95;0.40;;;;;;;;;;5051559;28;20060;-48
2021/11/27 14:30:25;;;;;;;2.15;0.70;;;;;;;;;;5049941;28;20033;-45
2021/11/27 14:32:52;;;;;;;4.13;0.93;;;;;;;;;;5048791;28;20373;-44
2021/11/27 14:35:25;;;;;;;2.13;0.70;;;;;;;;;;5048190;28;20031;-48
2021/11/27 14:37:52;;;;;;;2.60;0.80;;;;;;;;;;5048138;28;20413;-48
2021/11/27 14:40:18;;;;;;;3.58;0.70;;;;;;;;;;5050080;28;20028;-45
2021/11/27 14:42:44;;;;;;;2.70;0.98;;;;;;;;;;5050990;28;20465;-47
2021/11/27 14:45:14;;;;;;;0.68;0.40;;;;;;;;;;5050999;28;20017;-56
2021/11/27 14:47:47;;;;;;;0.73;0.50;;;;;;;;;;5050794;28;20017;-46
2021/11/27 14:50:15;;;;;;;1.85;0.88;;;;;;;;;;5048097;28;20216;-57
2021/11/27 14:52:47;;;;;;;0.80;0.57;;;;;;;;;;5051011;28;20466;-47